Terminal Aerodrome Forecast
Issued by NWS Lake Charles, LA

Home | Current Version | Previous Version | Text Only | Print | Product List | Glossary On
Versions: 1 2 3 4 5 6 7 8 9 10 11 12 13 14
000
FTUS44 KLCH 022300
TAFAEX
TAF
KAEX 022340Z 0300/0324 VRB04KT 1SM BR OVC003
     FM030300 VRB03KT 1/2SM FG OVC002
     FM031600 14006KT 3SM BR OVC004
     FM031800 17010KT P6SM OVC007
     FM032000 18010G15KT P6SM SCT015=

USA.gov is the U.S. government's official web portal to all federal, state and local government web resources and services.